This is the latest recevied weather packets stored in our database for station/object IZ3MEZ-13. If no packets are shown the sender has not sent any weather packets the latest 10 day(s).
| Time | Temp. | Humidity | Pressure | Rain* | Wind** | Luminosity | Snow |
|---|---|---|---|---|---|---|---|
| 1777730424 | 30.56° C | 30% | 1023.3 hPa | 0 mm | - | 541 W/m² | - |
| 1777729819 | 30.56° C | 31% | 1023.7 hPa | 0 mm | - | 539 W/m² | - |
| 1777729222 | 29.44° C | 31% | 1023.7 hPa | 0 mm | - | 590 W/m² | - |
| 1777728616 | 28.89° C | 32% | 1023.8 hPa | 0 mm | - | 604 W/m² | - |
| 1777728019 | 29.44° C | 31% | 1023.9 hPa | 0 mm | - | 660 W/m² | - |
| 1777727420 | 28.89° C | 32% | 1024.1 hPa | 0 mm | - | 669 W/m² | - |
| 1777726829 | 28.33° C | 33% | 1024.2 hPa | 0 mm | - | 696 W/m² | - |
| 1777726222 | 27.78° C | 34% | 1024.3 hPa | 0 mm | - | 715 W/m² | - |
| 1777725620 | 27.78° C | 34% | 1024.4 hPa | 0 mm | - | 734 W/m² | - |
| 1777725017 | 27.22° C | 34% | 1024.5 hPa | 0 mm | - | 716 W/m² | - |
| 1777724420 | 27.22° C | 34% | 1024.7 hPa | 0 mm | - | 717 W/m² | - |
| 1777723822 | 26.67° C | 34% | 1024.8 hPa | 0 mm | - | 735 W/m² | - |
| 1777723219 | 26.67° C | 35% | 1024.9 hPa | 0 mm | - | 699 W/m² | - |
| 1777722622 | 26.67° C | 33% | 1025 hPa | 0 mm | - | 728 W/m² | - |
| 1777722031 | 27.22° C | 35% | 1025.2 hPa | 0 mm | - | 769 W/m² | - |
| 1777721417 | 27.22° C | 34% | 1025.3 hPa | 0 mm | - | 771 W/m² | - |
| 1777720826 | 27.22° C | 35% | 1025.4 hPa | 0 mm | - | 768 W/m² | - |
| 1777720223 | 27.78° C | 34% | 1025.6 hPa | 0 mm | - | 763 W/m² | - |
| 1777719620 | 27.22° C | 35% | 1025.8 hPa | 0 mm | - | 773 W/m² | - |
| 1777719026 | 27.22° C | 35% | 1025.9 hPa | 0 mm | - | 749 W/m² | - |
| 1777718417 | 26.11° C | 35% | 1026.1 hPa | 0 mm | - | 744 W/m² | - |
| 1777717822 | 26.11° C | 36% | 1026.2 hPa | 0 mm | - | 752 W/m² | - |
| 1777717223 | 25.56° C | 37% | 1026.2 hPa | 0 mm | - | 753 W/m² | - |
| 1777716619 | 23.33° C | 40% | 1026.4 hPa | 0 mm | - | 728 W/m² | - |
| 1777716028 | 22.22° C | 42% | 1026.6 hPa | 0 mm | - | 753 W/m² | - |
* Rain latest hour (hover to see other rain measurements)
** Current wind speed in m/s (hover to see current wind gust speed)